Time;durP1;ratioP1;P1;durP2;ratioP2;P2;SDS_P1;SDS_P2;PMS_P1;PMS_P2;Temp;Humidity;BMP_temperature;BMP_pressure;BME280_temperature;BME280_humidity;BME280_pressure;Samples;Min_cycle;Max_cycle;Signal;HPM_P1;HPM_P2
2021/03/01 00:00:14;;;;;;;15.37;5.57;;;;;;;;;;4864900;28;179189;-74
2021/03/01 00:02:41;;;;;;;8.93;5.50;;;;;;;;;;4852490;28;177919;-74
2021/03/01 00:05:09;;;;;;;8.67;6.20;;;;;;;;;;4853848;28;179062;-74
2021/03/01 00:07:36;;;;;;;7.93;5.90;;;;;;;;;;4858014;28;178816;-73
2021/03/01 00:10:04;;;;;;;15.20;6.43;;;;;;;;;;4850299;28;182065;-74
2021/03/01 00:12:31;;;;;;;14.57;5.97;;;;;;;;;;4868469;28;179479;-74
2021/03/01 00:14:58;;;;;;;13.43;5.93;;;;;;;;;;4857576;28;181128;-74
2021/03/01 00:17:25;;;;;;;10.30;6.00;;;;;;;;;;4859381;28;178347;-74
2021/03/01 00:19:52;;;;;;;13.33;6.03;;;;;;;;;;4851822;28;178512;-74
2021/03/01 00:22:18;;;;;;;6.57;5.00;;;;;;;;;;4850468;28;178685;-74
2021/03/01 00:24:45;;;;;;;10.73;5.47;;;;;;;;;;4850369;28;178745;-74
2021/03/01 00:27:12;;;;;;;11.07;5.33;;;;;;;;;;4858925;28;178361;-74
2021/03/01 00:29:39;;;;;;;10.50;5.43;;;;;;;;;;4868832;28;178692;-74
2021/03/01 00:32:05;;;;;;;6.73;5.00;;;;;;;;;;4866867;28;178892;-74
2021/03/01 00:34:32;;;;;;;9.40;5.20;;;;;;;;;;4865777;28;181924;-74
2021/03/01 00:36:59;;;;;;;9.53;5.67;;;;;;;;;;4858777;28;181264;-74
2021/03/01 00:39:26;;;;;;;9.00;5.50;;;;;;;;;;4861005;28;178693;-74
2021/03/01 00:41:53;;;;;;;9.63;5.37;;;;;;;;;;4860068;28;179877;-74
2021/03/01 00:44:19;;;;;;;12.57;5.97;;;;;;;;;;4867236;28;179324;-74
2021/03/01 00:46:46;;;;;;;7.37;5.07;;;;;;;;;;4867029;28;177996;-74
2021/03/01 00:49:13;;;;;;;7.23;5.40;;;;;;;;;;4854840;28;178051;-74
2021/03/01 00:51:40;;;;;;;8.30;5.20;;;;;;;;;;4862852;28;176551;-74
2021/03/01 00:54:07;;;;;;;8.53;5.63;;;;;;;;;;4866570;28;182077;-74
2021/03/01 00:56:47;;;;;;;11.90;6.53;;;;;;;;;;4858993;28;179928;-74
2021/03/01 00:59:13;;;;;;;10.00;5.43;;;;;;;;;;4848717;28;182118;-74
2021/03/01 01:01:41;;;;;;;7.50;5.40;;;;;;;;;;4881539;28;178035;-74
2021/03/01 01:04:08;;;;;;;7.83;5.87;;;;;;;;;;4866414;28;181997;-74
2021/03/01 01:06:36;;;;;;;10.23;6.10;;;;;;;;;;4863776;28;181311;-74
2021/03/01 01:09:04;;;;;;;9.20;5.80;;;;;;;;;;4868974;28;177934;-74
2021/03/01 01:11:31;;;;;;;8.23;5.57;;;;;;;;;;4867578;28;177996;-74
2021/03/01 01:13:58;;;;;;;9.27;5.77;;;;;;;;;;4857921;28;179478;-74
2021/03/01 01:16:24;;;;;;;9.50;5.77;;;;;;;;;;4861596;28;177644;-74
2021/03/01 01:18:51;;;;;;;8.17;5.33;;;;;;;;;;4857023;28;177950;-74
2021/03/01 01:21:18;;;;;;;9.80;5.37;;;;;;;;;;4850227;28;178153;-74
2021/03/01 01:23:44;;;;;;;8.47;5.43;;;;;;;;;;4855481;28;181992;-74
2021/03/01 01:26:11;;;;;;;7.40;5.37;;;;;;;;;;4867424;28;181401;-74
2021/03/01 01:28:38;;;;;;;7.90;5.63;;;;;;;;;;4860229;28;178807;-74
2021/03/01 01:31:05;;;;;;;10.10;5.77;;;;;;;;;;4850992;28;177908;-74
2021/03/01 01:33:32;;;;;;;11.50;6.10;;;;;;;;;;4849783;28;178867;-74
2021/03/01 01:35:59;;;;;;;10.10;6.00;;;;;;;;;;4860267;28;178495;-74
2021/03/01 01:38:25;;;;;;;9.03;5.77;;;;;;;;;;4852116;28;177817;-74
2021/03/01 01:40:52;;;;;;;8.83;5.77;;;;;;;;;;4855144;28;176474;-74
2021/03/01 01:43:19;;;;;;;7.57;5.63;;;;;;;;;;4852892;28;180170;-74
2021/03/01 01:45:45;;;;;;;8.50;5.80;;;;;;;;;;4848866;28;178869;-74
2021/03/01 01:48:12;;;;;;;10.03;6.03;;;;;;;;;;4862281;28;182186;-74
2021/03/01 01:50:39;;;;;;;9.63;6.37;;;;;;;;;;4862296;28;178252;-73
2021/03/01 01:53:06;;;;;;;12.57;6.60;;;;;;;;;;4866917;28;180127;-74
2021/03/01 01:55:32;;;;;;;8.97;6.03;;;;;;;;;;4881646;28;181926;-74
2021/03/01 01:57:59;;;;;;;9.47;5.60;;;;;;;;;;4871073;28;177887;-74
2021/03/01 02:00:45;;;;;;;11.40;6.23;;;;;;;;;;4860030;28;179054;-74
2021/03/01 02:03:30;;;;;;;8.00;6.03;;;;;;;;;;4856468;28;179316;-74
2021/03/01 02:06:00;;;;;;;9.23;5.80;;;;;;;;;;4882482;28;178082;-74
2021/03/01 02:08:37;;;;;;;11.87;6.20;;;;;;;;;;4889149;28;178385;-74
2021/03/01 02:11:09;;;;;;;9.50;6.17;;;;;;;;;;4869326;28;177823;-74
2021/03/01 02:13:43;;;;;;;9.30;6.13;;;;;;;;;;4856919;28;182344;-74
2021/03/01 02:16:18;;;;;;;11.00;6.57;;;;;;;;;;4863222;28;180927;-74
2021/03/01 02:18:45;;;;;;;10.67;6.53;;;;;;;;;;4858366;28;179936;-74
2021/03/01 02:21:13;;;;;;;7.63;6.10;;;;;;;;;;4858208;28;177912;-74
2021/03/01 02:23:40;;;;;;;10.03;7.00;;;;;;;;;;4864044;28;180609;-74
2021/03/01 02:26:26;;;;;;;9.23;6.40;;;;;;;;;;4863767;28;177913;-74
2021/03/01 02:28:55;;;;;;;8.73;6.37;;;;;;;;;;4867413;28;178995;-74
2021/03/01 02:31:23;;;;;;;12.60;6.60;;;;;;;;;;4859630;28;176698;-74
2021/03/01 02:33:51;;;;;;;11.47;6.43;;;;;;;;;;4852379;28;181124;-74
2021/03/01 02:36:20;;;;;;;8.30;6.13;;;;;;;;;;4860587;28;180052;-74
2021/03/01 02:38:48;;;;;;;12.10;7.40;;;;;;;;;;4865144;28;181260;-74
2021/03/01 02:41:15;;;;;;;9.17;6.73;;;;;;;;;;4855104;28;179952;-74
2021/03/01 02:43:42;;;;;;;10.77;6.67;;;;;;;;;;4857221;28;179540;-74
2021/03/01 02:46:11;;;;;;;11.00;6.60;;;;;;;;;;4857043;28;178097;-74
2021/03/01 02:48:40;;;;;;;10.30;6.30;;;;;;;;;;4852886;28;179229;-74
2021/03/01 02:51:08;;;;;;;13.63;7.00;;;;;;;;;;4866461;28;179383;-74
2021/03/01 02:53:36;;;;;;;11.27;7.50;;;;;;;;;;4861597;28;180507;-74
2021/03/01 02:56:03;;;;;;;10.97;7.00;;;;;;;;;;4867800;28;179369;-74
2021/03/01 02:58:31;;;;;;;12.20;7.03;;;;;;;;;;4855631;28;178353;-74
2021/03/01 03:00:58;;;;;;;13.10;7.37;;;;;;;;;;4857578;28;178464;-74
2021/03/01 03:03:26;;;;;;;10.83;6.70;;;;;;;;;;4856529;28;182961;-74
2021/03/01 03:05:53;;;;;;;10.43;7.27;;;;;;;;;;4852246;28;181349;-74
2021/03/01 03:08:20;;;;;;;10.67;6.57;;;;;;;;;;4865632;28;178832;-74
2021/03/01 03:10:47;;;;;;;11.20;7.47;;;;;;;;;;4871004;28;178435;-74
2021/03/01 03:13:15;;;;;;;11.10;7.23;;;;;;;;;;4871321;28;179110;-74
2021/03/01 03:15:42;;;;;;;10.57;6.17;;;;;;;;;;4871916;28;178427;-74
2021/03/01 03:18:14;;;;;;;12.97;7.40;;;;;;;;;;4871837;28;177963;-74
2021/03/01 03:20:41;;;;;;;11.20;6.77;;;;;;;;;;4872977;28;176511;-74
2021/03/01 03:23:08;;;;;;;10.83;6.63;;;;;;;;;;4870520;28;179788;-74
2021/03/01 03:25:35;;;;;;;12.10;7.60;;;;;;;;;;4871817;28;178256;-73
2021/03/01 03:28:04;;;;;;;11.20;7.57;;;;;;;;;;4851976;28;181288;-74
2021/03/01 03:30:31;;;;;;;16.20;8.00;;;;;;;;;;4873235;28;178030;-74
2021/03/01 03:32:57;;;;;;;11.63;6.97;;;;;;;;;;4852813;28;178820;-74
2021/03/01 03:35:26;;;;;;;11.87;7.03;;;;;;;;;;4852264;28;178215;-74
2021/03/01 03:37:59;;;;;;;13.43;6.93;;;;;;;;;;4865984;28;177942;-74
2021/03/01 03:40:26;;;;;;;12.30;8.10;;;;;;;;;;4871576;28;178504;-74
2021/03/01 03:42:54;;;;;;;12.90;8.07;;;;;;;;;;4856901;28;178410;-74
2021/03/01 03:45:21;;;;;;;12.17;7.10;;;;;;;;;;4869587;28;178194;-74
2021/03/01 03:47:49;;;;;;;13.07;7.47;;;;;;;;;;4869746;28;178167;-74
2021/03/01 03:50:16;;;;;;;10.03;6.87;;;;;;;;;;4870862;28;178437;-74
2021/03/01 03:52:44;;;;;;;12.47;7.63;;;;;;;;;;4861707;28;182341;-74
2021/03/01 03:55:12;;;;;;;13.10;7.40;;;;;;;;;;4865772;28;183475;-74
2021/03/01 03:57:42;;;;;;;11.77;7.37;;;;;;;;;;4856551;28;178247;-74
2021/03/01 04:00:10;;;;;;;12.73;8.03;;;;;;;;;;4852545;28;178742;-74
2021/03/01 04:02:38;;;;;;;16.97;7.70;;;;;;;;;;4855251;28;178898;-74
2021/03/01 04:05:06;;;;;;;12.20;8.03;;;;;;;;;;4858613;28;178343;-74
2021/03/01 04:07:33;;;;;;;13.73;7.13;;;;;;;;;;4869000;28;179401;-74
2021/03/01 04:10:00;;;;;;;12.73;8.03;;;;;;;;;;4861573;28;176974;-74
2021/03/01 04:12:30;;;;;;;14.07;8.30;;;;;;;;;;4860557;28;178768;-74
2021/03/01 04:14:57;;;;;;;11.50;7.97;;;;;;;;;;4855550;28;178318;-74
2021/03/01 04:17:25;;;;;;;11.57;7.23;;;;;;;;;;4860979;28;181178;-74
2021/03/01 04:19:53;;;;;;;14.20;8.27;;;;;;;;;;4871217;28;178222;-74
2021/03/01 04:22:20;;;;;;;12.10;7.23;;;;;;;;;;4869535;28;179402;-74
2021/03/01 04:24:49;;;;;;;13.87;8.13;;;;;;;;;;4868910;28;178382;-74
2021/03/01 04:27:16;;;;;;;11.63;8.00;;;;;;;;;;4858913;28;178573;-74
2021/03/01 04:29:43;;;;;;;17.07;9.03;;;;;;;;;;4853962;28;178639;-74
2021/03/01 04:32:10;;;;;;;11.97;7.50;;;;;;;;;;4869176;28;179832;-74
2021/03/01 04:34:38;;;;;;;15.20;8.50;;;;;;;;;;4869590;28;178627;-74
2021/03/01 04:37:05;;;;;;;15.87;8.60;;;;;;;;;;4891173;28;178512;-74
2021/03/01 04:39:31;;;;;;;14.13;8.40;;;;;;;;;;4856604;28;178072;-74
2021/03/01 04:41:58;;;;;;;12.60;7.70;;;;;;;;;;4856720;28;182639;-74
2021/03/01 04:44:25;;;;;;;15.60;8.13;;;;;;;;;;4853358;28;181964;-74
2021/03/01 04:46:53;;;;;;;14.47;8.43;;;;;;;;;;4851185;28;177958;-74
2021/03/01 04:49:23;;;;;;;18.13;9.03;;;;;;;;;;4852047;28;179302;-74
2021/03/01 04:51:50;;;;;;;13.47;8.13;;;;;;;;;;4850752;28;181498;-74
2021/03/01 04:54:17;;;;;;;18.87;8.50;;;;;;;;;;4857068;28;178422;-74
2021/03/01 04:56:45;;;;;;;12.57;7.77;;;;;;;;;;4867771;28;177874;-74
2021/03/01 04:59:15;;;;;;;15.43;8.83;;;;;;;;;;4853672;28;177690;-74
2021/03/01 05:01:46;;;;;;;13.80;8.13;;;;;;;;;;4881533;28;180016;-74
2021/03/01 05:04:13;;;;;;;14.17;8.80;;;;;;;;;;4853918;28;178476;-74
2021/03/01 05:06:39;;;;;;;12.83;8.07;;;;;;;;;;4853008;28;182152;-74
2021/03/01 05:09:07;;;;;;;16.60;8.77;;;;;;;;;;4868010;28;178262;-74
2021/03/01 05:11:34;;;;;;;11.97;7.73;;;;;;;;;;4857423;28;179722;-74
2021/03/01 05:14:02;;;;;;;13.53;7.67;;;;;;;;;;4857528;28;178363;-74
2021/03/01 05:16:29;;;;;;;15.50;8.87;;;;;;;;;;4855180;28;181099;-74
2021/03/01 05:18:56;;;;;;;13.00;8.33;;;;;;;;;;4852756;28;178625;-74
2021/03/01 05:21:23;;;;;;;16.57;9.00;;;;;;;;;;4850191;28;180104;-74
2021/03/01 05:23:51;;;;;;;15.33;8.50;;;;;;;;;;4850908;28;177495;-74
2021/03/01 05:26:18;;;;;;;13.67;8.50;;;;;;;;;;4851981;28;178538;-74
2021/03/01 05:28:45;;;;;;;15.83;9.33;;;;;;;;;;4862188;28;178496;-74
2021/03/01 05:31:11;;;;;;;14.33;8.70;;;;;;;;;;4848546;28;183553;-74
2021/03/01 05:33:39;;;;;;;13.70;7.50;;;;;;;;;;4850520;28;180447;-74
2021/03/01 05:36:06;;;;;;;31.37;9.63;;;;;;;;;;4850920;28;177907;-74
2021/03/01 05:38:33;;;;;;;13.97;8.90;;;;;;;;;;4850811;28;177957;-74
2021/03/01 05:41:01;;;;;;;25.07;9.77;;;;;;;;;;4851692;28;179789;-74
2021/03/01 05:43:29;;;;;;;13.63;8.50;;;;;;;;;;4859132;28;177969;-74
2021/03/01 05:45:58;;;;;;;14.97;8.87;;;;;;;;;;4850655;28;178345;-74
2021/03/01 05:48:25;;;;;;;17.97;8.47;;;;;;;;;;4851273;28;176620;-74
2021/03/01 05:50:56;;;;;;;14.07;8.73;;;;;;;;;;4850324;28;180064;-74
2021/03/01 05:53:26;;;;;;;19.50;9.30;;;;;;;;;;4852468;28;178362;-74
2021/03/01 05:55:53;;;;;;;22.33;9.37;;;;;;;;;;4855490;28;182302;-74
2021/03/01 05:58:21;;;;;;;15.23;8.93;;;;;;;;;;4862759;28;178083;-74
2021/03/01 06:00:48;;;;;;;27.10;9.77;;;;;;;;;;4857793;28;178745;-74
2021/03/01 06:03:15;;;;;;;24.77;11.37;;;;;;;;;;4859511;28;179191;-74
2021/03/01 06:05:42;;;;;;;16.33;9.23;;;;;;;;;;4852983;28;178028;-74
2021/03/01 06:08:10;;;;;;;16.47;9.50;;;;;;;;;;4856717;28;178263;-74
2021/03/01 06:10:37;;;;;;;14.93;9.13;;;;;;;;;;4865879;28;182464;-74
2021/03/01 06:13:05;;;;;;;18.20;9.83;;;;;;;;;;4860034;28;179018;-74
2021/03/01 06:15:34;;;;;;;17.67;9.30;;;;;;;;;;4862728;28;178932;-74
2021/03/01 06:18:11;;;;;;;17.03;9.73;;;;;;;;;;4872827;28;178400;-74
2021/03/01 06:20:38;;;;;;;16.83;9.70;;;;;;;;;;4869555;28;184887;-74
2021/03/01 06:23:05;;;;;;;16.47;9.37;;;;;;;;;;4871380;28;181954;-74
2021/03/01 06:25:32;;;;;;;16.17;8.93;;;;;;;;;;4871477;28;177987;-74
2021/03/01 06:27:59;;;;;;;17.40;9.47;;;;;;;;;;4871000;28;178339;-74
2021/03/01 06:30:33;;;;;;;15.47;9.33;;;;;;;;;;4855057;28;179075;-74
2021/03/01 06:33:13;;;;;;;20.27;9.70;;;;;;;;;;4859579;28;178263;-74
2021/03/01 06:35:50;;;;;;;13.77;8.20;;;;;;;;;;4861334;28;177905;-74
2021/03/01 06:38:31;;;;;;;14.17;8.50;;;;;;;;;;4855255;28;177382;-74
2021/03/01 06:41:09;;;;;;;13.90;9.13;;;;;;;;;;4852630;28;178146;-74
2021/03/01 06:43:37;;;;;;;15.60;9.70;;;;;;;;;;4855465;28;179667;-74
2021/03/01 06:46:08;;;;;;;15.83;10.27;;;;;;;;;;4853138;28;181845;-74
2021/03/01 06:48:35;;;;;;;17.50;9.90;;;;;;;;;;4858178;28;178235;-73
2021/03/01 06:51:02;;;;;;;17.30;9.27;;;;;;;;;;4872444;28;180184;-74
2021/03/01 06:53:28;;;;;;;16.20;9.60;;;;;;;;;;4864933;28;178887;-74
2021/03/01 06:56:05;;;;;;;24.33;9.63;;;;;;;;;;4863092;28;178499;-74
2021/03/01 06:58:42;;;;;;;23.80;10.77;;;;;;;;;;4876796;28;178046;-74
2021/03/01 07:01:13;;;;;;;13.63;8.50;;;;;;;;;;4859791;28;180730;-74
2021/03/01 07:03:42;;;;;;;15.60;8.83;;;;;;;;;;4868230;28;180156;-73
2021/03/01 07:06:08;;;;;;;16.43;9.60;;;;;;;;;;4870049;28;178473;-74
2021/03/01 07:08:46;;;;;;;41.00;11.93;;;;;;;;;;4872194;28;177771;-73
2021/03/01 07:11:31;;;;;;;16.77;10.07;;;;;;;;;;4868277;28;183072;-73
2021/03/01 07:14:04;;;;;;;15.53;9.37;;;;;;;;;;4870621;28;182850;-74
2021/03/01 07:16:35;;;;;;;16.60;9.63;;;;;;;;;;4872050;28;177952;-74
2021/03/01 07:19:04;;;;;;;17.63;10.40;;;;;;;;;;4871349;28;178922;-74
2021/03/01 07:21:31;;;;;;;15.83;10.10;;;;;;;;;;4869840;28;178991;-74
2021/03/01 07:23:59;;;;;;;19.13;11.10;;;;;;;;;;4869510;28;179190;-74
2021/03/01 07:26:26;;;;;;;20.70;11.50;;;;;;;;;;4869718;28;178759;-74
2021/03/01 07:28:55;;;;;;;16.90;10.87;;;;;;;;;;4871255;28;177385;-73
2021/03/01 07:31:22;;;;;;;17.33;9.47;;;;;;;;;;4868427;28;178857;-73
2021/03/01 07:33:50;;;;;;;15.63;9.80;;;;;;;;;;4871786;28;178313;-73
2021/03/01 07:36:17;;;;;;;18.63;10.40;;;;;;;;;;4870115;28;181107;-73
2021/03/01 07:38:44;;;;;;;14.43;9.47;;;;;;;;;;4867982;28;179096;-73
2021/03/01 07:41:11;;;;;;;18.03;9.77;;;;;;;;;;4862336;28;180316;-74
2021/03/01 07:43:42;;;;;;;18.30;10.43;;;;;;;;;;4877505;28;178626;-74
2021/03/01 07:46:09;;;;;;;16.47;9.90;;;;;;;;;;4869665;28;178688;-73
2021/03/01 07:48:40;;;;;;;15.13;9.57;;;;;;;;;;4878337;28;178544;-73
2021/03/01 07:51:08;;;;;;;20.40;10.50;;;;;;;;;;4861167;28;180212;-73
2021/03/01 07:53:52;;;;;;;19.30;9.53;;;;;;;;;;4864481;28;178189;-73
2021/03/01 07:56:25;;;;;;;13.80;9.40;;;;;;;;;;4863390;28;178257;-74
2021/03/01 07:58:58;;;;;;;15.17;10.00;;;;;;;;;;4871542;28;178584;-73
2021/03/01 08:01:25;;;;;;;12.93;9.00;;;;;;;;;;4862615;28;185104;-73
2021/03/01 08:03:52;;;;;;;14.07;9.83;;;;;;;;;;4856135;28;181083;-73
2021/03/01 08:06:19;;;;;;;16.50;9.90;;;;;;;;;;4862960;28;178209;-73
2021/03/01 08:08:52;;;;;;;14.27;9.57;;;;;;;;;;4857043;28;178737;-74
2021/03/01 08:11:41;;;;;;;16.97;9.90;;;;;;;;;;4859113;28;179799;-73
2021/03/01 08:14:12;;;;;;;13.70;10.10;;;;;;;;;;4868230;28;179220;-73
2021/03/01 08:16:39;;;;;;;16.43;10.27;;;;;;;;;;4865404;28;177906;-73
2021/03/01 08:19:06;;;;;;;14.87;9.67;;;;;;;;;;4861937;28;177613;-74
2021/03/01 08:21:52;;;;;;;13.53;9.53;;;;;;;;;;4865820;28;181219;-74
2021/03/01 08:24:45;;;;;;;14.57;10.47;;;;;;;;;;4869606;28;178522;-74
2021/03/01 08:27:27;;;;;;;15.10;9.93;;;;;;;;;;4867029;28;181304;-74
2021/03/01 08:30:12;;;;;;;14.67;9.90;;;;;;;;;;4870798;28;177821;-74
2021/03/01 08:32:39;;;;;;;478.70;281.03;;;;;;;;;;4869466;28;179471;-74
2021/03/01 08:35:25;;;;;;;334.10;164.87;;;;;;;;;;4860932;28;179166;-74
2021/03/01 08:37:52;;;;;;;88.17;50.53;;;;;;;;;;4851799;28;178043;-73
2021/03/01 08:40:19;;;;;;;797.70;495.10;;;;;;;;;;4869718;28;178360;-74
2021/03/01 08:42:50;;;;;;;214.30;158.43;;;;;;;;;;4863276;28;179427;-74
2021/03/01 08:45:20;;;;;;;73.70;45.50;;;;;;;;;;4898847;28;177366;-74
2021/03/01 08:47:48;;;;;;;64.83;39.57;;;;;;;;;;4869071;28;177804;-74
2021/03/01 08:50:15;;;;;;;344.90;233.43;;;;;;;;;;4868567;28;178284;-74
2021/03/01 08:52:48;;;;;;;21.07;14.10;;;;;;;;;;4862190;28;182690;-74
2021/03/01 08:55:16;;;;;;;60.03;38.60;;;;;;;;;;4860531;28;182149;-74
2021/03/01 08:57:59;;;;;;;20.73;13.53;;;;;;;;;;4869490;28;178457;-75
2021/03/01 09:00:28;;;;;;;18.40;12.57;;;;;;;;;;4862116;28;178019;-74
2021/03/01 09:03:13;;;;;;;22.77;15.33;;;;;;;;;;4849643;28;179350;-74
2021/03/01 09:05:41;;;;;;;36.70;26.70;;;;;;;;;;4849564;28;178856;-76
2021/03/01 09:08:09;;;;;;;27.80;21.23;;;;;;;;;;4852556;28;177905;-76
2021/03/01 09:10:43;;;;;;;17.30;12.07;;;;;;;;;;4869850;28;176770;-75
2021/03/01 09:13:16;;;;;;;15.60;12.00;;;;;;;;;;4867842;28;180209;-75
2021/03/01 09:15:42;;;;;;;16.13;11.60;;;;;;;;;;4869099;28;178333;-75
2021/03/01 09:18:09;;;;;;;15.37;10.97;;;;;;;;;;4867605;28;181164;-76
2021/03/01 09:20:40;;;;;;;16.60;11.60;;;;;;;;;;4856213;28;178009;-75
2021/03/01 09:23:08;;;;;;;18.30;12.83;;;;;;;;;;4844981;28;178526;-75
2021/03/01 09:25:35;;;;;;;15.03;10.60;;;;;;;;;;4846911;28;178725;-76
2021/03/01 09:28:03;;;;;;;14.93;10.33;;;;;;;;;;4866129;28;180452;-75
2021/03/01 09:30:30;;;;;;;15.03;10.87;;;;;;;;;;4885461;28;178677;-76
2021/03/01 09:33:01;;;;;;;15.70;10.63;;;;;;;;;;4883596;28;179261;-75
2021/03/01 09:35:29;;;;;;;14.73;10.07;;;;;;;;;;4884326;28;178052;-75
2021/03/01 09:38:05;;;;;;;16.70;10.23;;;;;;;;;;4866487;28;177984;-75
2021/03/01 09:40:32;;;;;;;13.73;10.03;;;;;;;;;;4884158;28;178352;-75
2021/03/01 09:43:03;;;;;;;13.83;10.23;;;;;;;;;;4865655;28;183925;-75
2021/03/01 09:45:35;;;;;;;15.83;10.30;;;;;;;;;;4868136;28;181107;-74
2021/03/01 09:48:06;;;;;;;14.63;10.70;;;;;;;;;;4869869;28;178706;-75
2021/03/01 09:50:37;;;;;;;14.17;10.37;;;;;;;;;;4869650;28;178603;-78
2021/03/01 09:53:05;;;;;;;22.90;12.33;;;;;;;;;;4867494;28;179828;-79
2021/03/01 09:55:32;;;;;;;25.17;14.50;;;;;;;;;;4868517;28;181148;-74
2021/03/01 09:57:59;;;;;;;15.70;10.87;;;;;;;;;;4869580;28;178781;-75
2021/03/01 10:00:27;;;;;;;16.73;10.30;;;;;;;;;;4869369;28;176540;-74
2021/03/01 10:02:58;;;;;;;15.70;10.27;;;;;;;;;;4867641;28;179280;-75
2021/03/01 10:05:25;;;;;;;30.47;16.33;;;;;;;;;;4865097;28;179204;-75
2021/03/01 10:08:04;;;;;;;28.90;16.07;;;;;;;;;;4864309;28;181223;-74
2021/03/01 10:10:35;;;;;;;16.27;10.67;;;;;;;;;;4874415;28;178444;-76
2021/03/01 10:13:02;;;;;;;16.00;10.83;;;;;;;;;;4857602;28;179153;-76
2021/03/01 10:15:28;;;;;;;15.40;9.70;;;;;;;;;;4867489;28;178819;-75
2021/03/01 10:18:05;;;;;;;14.13;9.80;;;;;;;;;;4869068;28;177940;-75
2021/03/01 10:20:33;;;;;;;17.27;11.10;;;;;;;;;;4867284;28;179280;-74
2021/03/01 10:23:00;;;;;;;18.03;11.50;;;;;;;;;;4865921;28;178698;-75
2021/03/01 10:25:28;;;;;;;38.87;17.47;;;;;;;;;;4866009;28;180029;-75
2021/03/01 10:27:55;;;;;;;63.23;31.23;;;;;;;;;;4868021;28;177988;-74
2021/03/01 10:30:22;;;;;;;68.67;35.57;;;;;;;;;;4867534;28;178514;-74
2021/03/01 10:32:48;;;;;;;46.67;22.73;;;;;;;;;;4865614;28;183434;-74
2021/03/01 10:35:20;;;;;;;17.43;11.53;;;;;;;;;;4867476;28;181904;-74
2021/03/01 10:38:04;;;;;;;17.23;11.00;;;;;;;;;;4869065;28;178375;-74
2021/03/01 10:40:31;;;;;;;14.33;10.03;;;;;;;;;;4868847;28;178362;-74
2021/03/01 10:42:57;;;;;;;14.60;10.03;;;;;;;;;;4866996;28;180255;-75
2021/03/01 10:45:24;;;;;;;14.37;10.23;;;;;;;;;;4867315;28;179094;-76
2021/03/01 10:48:01;;;;;;;16.93;11.73;;;;;;;;;;4868278;28;178484;-76
2021/03/01 10:50:28;;;;;;;26.07;16.97;;;;;;;;;;4869205;28;176555;-78
2021/03/01 10:52:54;;;;;;;28.10;16.60;;;;;;;;;;4866863;28;179705;-77
2021/03/01 10:55:21;;;;;;;27.80;17.80;;;;;;;;;;4867422;28;178479;-77
2021/03/01 10:57:48;;;;;;;60.83;39.30;;;;;;;;;;4867265;28;182734;-76
2021/03/01 11:00:15;;;;;;;25.67;17.50;;;;;;;;;;4867958;28;178474;-76
2021/03/01 11:02:43;;;;;;;18.37;13.43;;;;;;;;;;4867671;28;180210;-76
2021/03/01 11:05:10;;;;;;;20.27;12.17;;;;;;;;;;4867886;28;179185;-76
2021/03/01 11:07:36;;;;;;;28.87;15.67;;;;;;;;;;4867700;28;178716;-77
2021/03/01 11:10:06;;;;;;;19.07;12.43;;;;;;;;;;4867635;28;178616;-76
2021/03/01 11:12:33;;;;;;;20.83;12.67;;;;;;;;;;4867322;28;180916;-77
2021/03/01 11:15:01;;;;;;;17.33;11.83;;;;;;;;;;4867052;28;178276;-76
2021/03/01 11:17:28;;;;;;;14.40;10.13;;;;;;;;;;4867739;28;177945;-76
2021/03/01 11:19:58;;;;;;;16.40;9.47;;;;;;;;;;4867671;28;178806;-76
2021/03/01 11:22:25;;;;;;;16.07;10.73;;;;;;;;;;4866718;28;182663;-76
2021/03/01 11:24:51;;;;;;;22.33;12.37;;;;;;;;;;4866191;28;181824;-76
2021/03/01 11:27:18;;;;;;;37.23;18.20;;;;;;;;;;4866379;28;178703;-78
2021/03/01 11:29:44;;;;;;;51.63;25.70;;;;;;;;;;4868467;28;178845;-77
2021/03/01 11:32:11;;;;;;;34.33;19.30;;;;;;;;;;4866213;28;178296;-76
2021/03/01 11:34:38;;;;;;;36.83;19.17;;;;;;;;;;4867601;28;181762;-77
2021/03/01 11:37:05;;;;;;;12.83;9.17;;;;;;;;;;4868187;28;178581;-76
2021/03/01 11:39:31;;;;;;;32.27;18.27;;;;;;;;;;4869218;28;176621;-77
2021/03/01 11:41:58;;;;;;;17.57;10.67;;;;;;;;;;4865998;28;181591;-77
2021/03/01 11:44:25;;;;;;;42.80;19.03;;;;;;;;;;4867312;28;178564;-77
2021/03/01 11:46:51;;;;;;;18.37;10.57;;;;;;;;;;4865250;28;181835;-76
2021/03/01 11:49:18;;;;;;;16.93;10.97;;;;;;;;;;4868338;28;178034;-76
2021/03/01 11:51:45;;;;;;;22.57;13.53;;;;;;;;;;4866577;28;180410;-77
2021/03/01 11:54:14;;;;;;;21.13;12.80;;;;;;;;;;4866916;28;178788;-76
2021/03/01 11:56:41;;;;;;;15.13;10.37;;;;;;;;;;4868001;28;178646;-76
2021/03/01 11:59:07;;;;;;;14.47;10.27;;;;;;;;;;4867563;28;178552;-77
2021/03/01 12:01:34;;;;;;;18.57;10.10;;;;;;;;;;4866749;28;178622;-76
2021/03/01 12:04:01;;;;;;;17.93;9.80;;;;;;;;;;4867198;28;178778;-76
2021/03/01 12:06:28;;;;;;;16.50;9.97;;;;;;;;;;4873591;28;179103;-77
2021/03/01 12:08:54;;;;;;;13.93;8.50;;;;;;;;;;4875867;28;178939;-72
2021/03/01 12:11:21;;;;;;;11.50;8.80;;;;;;;;;;4883748;28;183106;-78
2021/03/01 12:13:48;;;;;;;22.30;14.00;;;;;;;;;;4887308;28;182432;-77
2021/03/01 12:16:14;;;;;;;12.50;8.80;;;;;;;;;;4869924;28;178330;-80
2021/03/01 12:18:41;;;;;;;43.20;19.00;;;;;;;;;;4868443;28;178575;-77
2021/03/01 12:21:08;;;;;;;58.70;19.93;;;;;;;;;;4866172;28;179521;-76
2021/03/01 12:23:34;;;;;;;16.67;10.37;;;;;;;;;;4864363;28;178464;-75
2021/03/01 12:26:01;;;;;;;15.90;10.63;;;;;;;;;;4866922;28;178192;-76
2021/03/01 12:28:28;;;;;;;48.07;20.73;;;;;;;;;;4868211;28;177094;-75
2021/03/01 12:30:55;;;;;;;14.63;9.00;;;;;;;;;;4866903;28;178636;-75
2021/03/01 12:33:41;;;;;;;18.17;10.17;;;;;;;;;;4867551;28;178442;-75
2021/03/01 12:36:08;;;;;;;33.97;14.10;;;;;;;;;;4865538;28;181712;-76
2021/03/01 12:38:35;;;;;;;18.53;10.47;;;;;;;;;;4867483;28;178425;-75
2021/03/01 12:41:02;;;;;;;12.93;9.17;;;;;;;;;;4866050;28;179017;-75
2021/03/01 12:43:29;;;;;;;12.47;9.10;;;;;;;;;;4866726;28;178583;-75
2021/03/01 12:45:55;;;;;;;14.23;9.67;;;;;;;;;;4867574;28;178545;-75
2021/03/01 12:48:22;;;;;;;12.03;8.93;;;;;;;;;;4867681;28;178454;-75
2021/03/01 12:50:49;;;;;;;12.33;8.80;;;;;;;;;;4867926;28;178498;-76
2021/03/01 12:53:15;;;;;;;10.23;8.20;;;;;;;;;;4867473;28;178233;-75
2021/03/01 12:55:42;;;;;;;20.20;10.90;;;;;;;;;;4866869;28;178529;-75
2021/03/01 12:58:09;;;;;;;14.03;9.50;;;;;;;;;;4866950;28;179008;-75
2021/03/01 13:00:35;;;;;;;12.17;8.30;;;;;;;;;;4865618;28;182634;-76
2021/03/01 13:03:02;;;;;;;12.23;8.40;;;;;;;;;;4864709;28;182808;-76
2021/03/01 13:05:30;;;;;;;10.77;8.70;;;;;;;;;;4880056;28;178396;-76
2021/03/01 13:07:57;;;;;;;10.87;8.50;;;;;;;;;;4866701;28;178546;-75
2021/03/01 13:10:23;;;;;;;11.07;9.03;;;;;;;;;;4866588;28;179742;-75
2021/03/01 13:12:50;;;;;;;11.87;9.17;;;;;;;;;;4865822;28;179328;-75
2021/03/01 13:15:17;;;;;;;12.57;9.47;;;;;;;;;;4866509;28;178975;-73
2021/03/01 13:17:43;;;;;;;9.60;8.10;;;;;;;;;;4866978;28;177624;-75
2021/03/01 13:20:10;;;;;;;13.87;9.93;;;;;;;;;;4865372;28;179156;-76
2021/03/01 13:22:37;;;;;;;12.10;8.47;;;;;;;;;;4864665;28;179451;-75
2021/03/01 13:25:04;;;;;;;14.20;9.37;;;;;;;;;;4863384;28;182144;-75
2021/03/01 13:27:31;;;;;;;12.87;8.83;;;;;;;;;;4866238;28;178744;-75
2021/03/01 13:29:59;;;;;;;14.57;8.83;;;;;;;;;;4865577;28;180296;-75
2021/03/01 13:32:26;;;;;;;14.03;9.97;;;;;;;;;;4865516;28;178982;-75
2021/03/01 13:34:53;;;;;;;14.30;10.23;;;;;;;;;;4860682;28;179674;-75
2021/03/01 13:37:20;;;;;;;13.50;10.00;;;;;;;;;;4864173;28;178712;-77
2021/03/01 13:39:47;;;;;;;14.80;10.93;;;;;;;;;;4866510;28;179468;-76
2021/03/01 13:42:13;;;;;;;12.63;9.07;;;;;;;;;;4868132;28;178323;-76
2021/03/01 13:44:40;;;;;;;12.47;9.10;;;;;;;;;;4871264;28;177912;-75
2021/03/01 13:47:06;;;;;;;11.07;8.23;;;;;;;;;;4857932;28;178734;-76
2021/03/01 13:49:33;;;;;;;15.07;11.13;;;;;;;;;;4863937;28;183554;-74
2021/03/01 13:52:00;;;;;;;12.70;8.57;;;;;;;;;;4864352;28;181490;-75
2021/03/01 13:54:27;;;;;;;96.23;53.27;;;;;;;;;;4852404;28;177981;-75
2021/03/01 13:56:53;;;;;;;56.37;32.67;;;;;;;;;;4850925;28;178033;-77
2021/03/01 13:59:21;;;;;;;67.70;40.00;;;;;;;;;;4863292;28;182684;-75
2021/03/01 14:01:47;;;;;;;82.23;50.93;;;;;;;;;;4867781;28;178579;-75
2021/03/01 14:04:14;;;;;;;21.47;15.90;;;;;;;;;;4882146;28;178302;-76
2021/03/01 14:06:41;;;;;;;16.40;11.73;;;;;;;;;;4868815;28;177783;-75
2021/03/01 14:09:07;;;;;;;11.90;8.83;;;;;;;;;;4867874;28;179960;-75
2021/03/01 14:11:35;;;;;;;13.77;9.73;;;;;;;;;;4869196;28;178574;-75
2021/03/01 14:14:02;;;;;;;14.20;10.40;;;;;;;;;;4868250;28;181237;-75
2021/03/01 14:16:28;;;;;;;12.47;8.23;;;;;;;;;;4868407;28;178685;-76
2021/03/01 14:18:55;;;;;;;26.77;18.77;;;;;;;;;;4869416;28;179387;-74
2021/03/01 14:21:22;;;;;;;14.53;10.70;;;;;;;;;;4867788;28;178923;-75